createdAt,value
2024-05-09T00:00:31.548Z,22.65
2024-05-09T00:01:45.699Z,22.66
2024-05-09T00:02:51.321Z,22.65
2024-05-09T00:03:56.853Z,22.65
2024-05-09T00:05:02.471Z,22.66
2024-05-09T00:06:08.473Z,22.66
2024-05-09T00:07:14.405Z,22.65
2024-05-09T00:08:19.831Z,22.64
2024-05-09T00:09:25.463Z,22.64
2024-05-09T00:10:35.147Z,22.64
2024-05-09T00:11:47.204Z,22.64
2024-05-09T00:12:53.053Z,22.64
2024-05-09T00:13:58.446Z,22.63
2024-05-09T00:15:04.004Z,22.64
2024-05-09T00:16:09.412Z,22.65
2024-05-09T00:17:15.005Z,22.65
2024-05-09T00:18:20.844Z,22.65
2024-05-09T00:19:26.892Z,22.65
2024-05-09T00:20:36.542Z,22.65
2024-05-09T00:21:45.739Z,22.64
2024-05-09T00:22:51.188Z,22.63
2024-05-09T00:23:56.622Z,22.62
2024-05-09T00:25:02.055Z,22.61
2024-05-09T00:26:07.507Z,22.6
2024-05-09T00:27:13.472Z,22.6
2024-05-09T00:28:18.944Z,22.6
2024-05-09T00:29:24.494Z,22.59
2024-05-09T00:30:33.942Z,22.59
2024-05-09T00:31:41.938Z,22.59
2024-05-09T00:32:47.551Z,22.59
2024-05-09T00:33:53.471Z,22.58
2024-05-09T00:34:59.358Z,22.57
2024-05-09T00:36:04.924Z,22.58
2024-05-09T00:37:10.336Z,22.57
2024-05-09T00:38:15.787Z,22.58
2024-05-09T00:39:21.363Z,22.58
2024-05-09T00:40:30.941Z,22.59
2024-05-09T00:41:47.254Z,22.58
2024-05-09T00:42:52.806Z,22.59
2024-05-09T00:43:58.234Z,22.58
2024-05-09T00:45:03.780Z,22.58
2024-05-09T00:46:09.218Z,22.58
2024-05-09T00:47:14.704Z,22.58
2024-05-09T00:48:21.420Z,22.57
2024-05-09T00:49:27.497Z,22.57
2024-05-09T00:50:35.444Z,22.57
2024-05-09T00:51:44.135Z,22.57
2024-05-09T00:52:49.623Z,22.57
2024-05-09T00:53:55.200Z,22.57
2024-05-09T00:55:00.592Z,22.57
2024-05-09T00:56:06.028Z,22.57
2024-05-09T00:57:11.574Z,22.55
2024-05-09T00:58:16.955Z,22.56
2024-05-09T00:59:22.461Z,22.57
2024-05-09T01:00:32.048Z,22.56
2024-05-09T01:01:45.881Z,22.56
2024-05-09T01:02:51.862Z,22.56
2024-05-09T01:03:57.670Z,22.55
2024-05-09T01:05:03.468Z,22.56
2024-05-09T01:06:09.268Z,22.55
2024-05-09T01:07:14.668Z,22.55
2024-05-09T01:08:20.161Z,22.55
2024-05-09T01:09:25.840Z,22.55
2024-05-09T01:10:33.960Z,22.54
2024-05-09T01:11:41.244Z,22.55
2024-05-09T01:12:46.988Z,22.55
2024-05-09T01:13:52.495Z,22.54
2024-05-09T01:14:58.038Z,22.54
2024-05-09T01:16:03.497Z,22.54
2024-05-09T01:17:08.960Z,22.54
2024-05-09T01:18:15.044Z,22.55
2024-05-09T01:19:21.247Z,22.54
2024-05-09T01:20:32.079Z,22.55
2024-05-09T01:21:48.995Z,22.56
2024-05-09T01:22:54.445Z,22.57
2024-05-09T01:23:59.965Z,22.56
2024-05-09T01:25:05.352Z,22.57
2024-05-09T01:26:10.865Z,22.57
2024-05-09T01:27:16.498Z,22.57
2024-05-09T01:28:21.878Z,22.58
2024-05-09T01:29:27.377Z,22.59
2024-05-09T01:30:34.469Z,22.58
2024-05-09T01:31:42.869Z,22.59
2024-05-09T01:32:48.765Z,22.58
2024-05-09T01:33:54.730Z,22.58
2024-05-09T01:35:00.927Z,22.58
2024-05-09T01:36:06.519Z,22.58
2024-05-09T01:37:11.947Z,22.59
2024-05-09T01:38:17.670Z,22.59
2024-05-09T01:39:23.360Z,22.59
2024-05-09T01:40:33.886Z,22.6
2024-05-09T01:41:44.611Z,22.59
2024-05-09T01:42:50.021Z,22.58
2024-05-09T01:43:55.485Z,22.58
2024-05-09T01:45:01.016Z,22.58
2024-05-09T01:46:06.434Z,22.58
2024-05-09T01:47:11.955Z,22.57
2024-05-09T01:48:17.738Z,22.58
2024-05-09T01:49:24.089Z,22.57
2024-05-09T01:50:36.450Z,22.57
2024-05-09T01:51:47.477Z,22.56
2024-05-09T01:52:52.879Z,22.55
2024-05-09T01:53:58.434Z,22.56
2024-05-09T01:55:06.270Z,22.55
2024-05-09T01:56:12.188Z,22.56
2024-05-09T01:57:17.764Z,22.56
2024-05-09T01:58:23.155Z,22.56
2024-05-09T01:59:28.806Z,22.58
2024-05-09T02:00:38.368Z,22.55
2024-05-09T02:01:55.123Z,22.56
2024-05-09T02:03:03.311Z,22.55
2024-05-09T02:04:09.515Z,22.55
2024-05-09T02:05:15.807Z,22.54
2024-05-09T02:06:22.024Z,22.53
2024-05-09T02:07:27.470Z,22.53
2024-05-09T02:08:33.032Z,22.52
2024-05-09T02:09:38.916Z,22.51
2024-05-09T02:10:44.617Z,22.52
2024-05-09T02:11:51.178Z,22.51
2024-05-09T02:12:56.928Z,22.51
2024-05-09T02:14:02.381Z,22.5
2024-05-09T02:15:07.937Z,22.5
2024-05-09T02:16:13.490Z,22.48
2024-05-09T02:17:18.997Z,22.49
2024-05-09T02:18:25.177Z,22.49
2024-05-09T02:19:31.222Z,22.48
2024-05-09T02:20:37.404Z,22.48
2024-05-09T02:21:43.179Z,22.48
2024-05-09T02:22:48.574Z,22.48
2024-05-09T02:23:54.228Z,22.47
2024-05-09T02:24:59.628Z,22.48
2024-05-09T02:26:05.025Z,22.47
2024-05-09T02:27:12.809Z,22.47
2024-05-09T02:28:18.215Z,22.48
2024-05-09T02:29:23.657Z,22.48
2024-05-09T02:30:36.069Z,22.48
2024-05-09T02:31:47.848Z,22.48
2024-05-09T02:32:53.690Z,22.48
2024-05-09T02:33:59.526Z,22.48
2024-05-09T02:35:05.916Z,22.49
2024-05-09T02:36:11.370Z,22.48
2024-05-09T02:37:16.829Z,22.47
2024-05-09T02:38:22.238Z,22.47
2024-05-09T02:39:27.784Z,22.47
2024-05-09T02:40:36.086Z,22.47
2024-05-09T02:41:44.750Z,22.46
2024-05-09T02:42:50.113Z,22.46
2024-05-09T02:43:55.506Z,22.46
2024-05-09T02:45:01.035Z,22.46
2024-05-09T02:46:06.419Z,22.45
2024-05-09T02:47:11.920Z,22.45
2024-05-09T02:48:17.807Z,22.46
2024-05-09T02:49:23.916Z,22.45
2024-05-09T02:50:34.083Z,22.45
2024-05-09T02:51:45.112Z,22.44
2024-05-09T02:52:50.560Z,22.44
2024-05-09T02:53:56.086Z,22.44
2024-05-09T02:55:01.479Z,22.44
2024-05-09T02:56:06.978Z,22.44
2024-05-09T02:57:12.615Z,22.44
2024-05-09T02:58:18.050Z,22.44
2024-05-09T02:59:23.592Z,22.44
2024-05-09T03:00:34.631Z,22.44
2024-05-09T03:01:47.122Z,22.43
2024-05-09T03:02:53.144Z,22.44
2024-05-09T03:03:59.228Z,22.44
2024-05-09T03:05:05.084Z,22.43
2024-05-09T03:06:10.720Z,22.44
2024-05-09T03:07:17.800Z,22.45
2024-05-09T03:08:24.531Z,22.48
2024-05-09T03:09:30.149Z,22.5
2024-05-09T03:10:37.210Z,22.52
2024-05-09T03:11:44.540Z,22.52
2024-05-09T03:12:50.538Z,22.52
2024-05-09T03:13:55.933Z,22.52
2024-05-09T03:15:01.425Z,22.53
2024-05-09T03:16:06.858Z,22.53
2024-05-09T03:17:12.315Z,22.53
2024-05-09T03:18:17.836Z,22.53
2024-05-09T03:19:23.647Z,22.52
2024-05-09T03:20:32.950Z,22.53
2024-05-09T03:21:41.635Z,22.54
2024-05-09T03:22:47.036Z,22.53
2024-05-09T03:23:52.879Z,22.55
2024-05-09T03:24:58.362Z,22.54
2024-05-09T03:26:03.873Z,22.55
2024-05-09T03:27:09.562Z,22.56
2024-05-09T03:28:14.946Z,22.56
2024-05-09T03:29:20.403Z,22.56
2024-05-09T03:30:30.456Z,22.55
2024-05-09T03:31:47.355Z,22.55
2024-05-09T03:32:53.259Z,22.58
2024-05-09T03:33:59.070Z,22.57
2024-05-09T03:35:05.119Z,22.58
2024-05-09T03:36:11.352Z,22.61
2024-05-09T03:37:16.980Z,22.59
2024-05-09T03:38:22.438Z,22.59
2024-05-09T03:39:28.058Z,22.59
2024-05-09T03:40:33.501Z,22.58
2024-05-09T03:41:38.956Z,22.59
2024-05-09T03:42:44.520Z,22.57
2024-05-09T03:43:49.966Z,22.58
2024-05-09T03:44:55.635Z,22.58
2024-05-09T03:46:01.036Z,22.6
2024-05-09T03:47:06.539Z,22.6
2024-05-09T03:48:12.560Z,22.6
2024-05-09T03:49:19.033Z,22.61
2024-05-09T03:50:26.107Z,22.6
2024-05-09T03:51:41.119Z,22.6
2024-05-09T03:52:46.558Z,22.59
2024-05-09T03:53:52.075Z,22.59
2024-05-09T03:54:57.513Z,22.6
2024-05-09T03:56:02.969Z,22.62
2024-05-09T03:57:08.509Z,22.65
2024-05-09T03:58:13.914Z,22.68
2024-05-09T03:59:19.391Z,22.69
2024-05-09T04:00:26.655Z,22.63
2024-05-09T04:01:44.207Z,22.46
2024-05-09T04:02:50.132Z,22.39
2024-05-09T04:03:56.242Z,22.33
2024-05-09T04:05:01.883Z,22.29
2024-05-09T04:06:07.550Z,22.24
2024-05-09T04:07:12.959Z,22.2
2024-05-09T04:08:18.453Z,22.16
2024-05-09T04:09:24.198Z,22.14
2024-05-09T04:10:32.692Z,22.13
2024-05-09T04:11:40.181Z,22.09
2024-05-09T04:12:45.941Z,22.1
2024-05-09T04:13:51.470Z,22.08
2024-05-09T04:14:57.047Z,22.07
2024-05-09T04:16:02.476Z,22.06
2024-05-09T04:17:07.967Z,22.06
2024-05-09T04:18:13.668Z,22.03
2024-05-09T04:19:19.431Z,22.03
2024-05-09T04:20:32.443Z,22
2024-05-09T04:21:45.422Z,22.01
2024-05-09T04:22:50.865Z,21.99
2024-05-09T04:23:56.413Z,21.97
2024-05-09T04:25:01.852Z,21.95
2024-05-09T04:26:07.314Z,21.96
2024-05-09T04:27:12.873Z,21.95
2024-05-09T04:28:18.292Z,21.94
2024-05-09T04:29:23.743Z,21.92
2024-05-09T04:30:34.654Z,21.91
2024-05-09T04:31:46.523Z,21.9
2024-05-09T04:32:52.303Z,21.89
2024-05-09T04:33:58.353Z,21.89
2024-05-09T04:35:04.352Z,21.88
2024-05-09T04:36:09.868Z,21.86
2024-05-09T04:37:15.320Z,21.86
2024-05-09T04:38:20.843Z,21.86
2024-05-09T04:39:26.377Z,21.84
2024-05-09T04:40:34.028Z,21.83
2024-05-09T04:41:42.355Z,21.83
2024-05-09T04:42:50.234Z,21.81
2024-05-09T04:43:55.699Z,21.8
2024-05-09T04:45:01.283Z,21.8
2024-05-09T04:46:06.686Z,21.8
2024-05-09T04:47:12.314Z,21.78
2024-05-09T04:48:18.356Z,21.78
2024-05-09T04:49:24.607Z,21.77
2024-05-09T04:50:34.152Z,21.77
2024-05-09T04:51:44.247Z,21.75
2024-05-09T04:52:49.672Z,21.76
2024-05-09T04:53:55.240Z,21.76
2024-05-09T04:55:00.633Z,21.73
2024-05-09T04:56:06.068Z,21.71
2024-05-09T04:57:11.651Z,21.71
2024-05-09T04:58:17.060Z,21.73
2024-05-09T04:59:22.464Z,21.7
2024-05-09T05:00:31.959Z,21.7
2024-05-09T05:01:44.959Z,21.7
2024-05-09T05:02:50.742Z,21.7
2024-05-09T05:03:57.072Z,21.68
2024-05-09T05:05:03.509Z,21.67
2024-05-09T05:06:09.356Z,21.66
2024-05-09T05:07:14.852Z,21.67
2024-05-09T05:08:20.334Z,21.66
2024-05-09T05:09:26.827Z,21.66
2024-05-09T05:10:35.412Z,21.66
2024-05-09T05:11:42.361Z,21.66
2024-05-09T05:12:48.147Z,21.65
2024-05-09T05:13:53.567Z,21.65
2024-05-09T05:14:59.122Z,21.64
2024-05-09T05:16:04.543Z,21.64
2024-05-09T05:17:09.973Z,21.64
2024-05-09T05:18:15.627Z,21.63
2024-05-09T05:19:22.148Z,21.62
2024-05-09T05:20:32.765Z,21.62
2024-05-09T05:21:39.454Z,21.61
2024-05-09T05:22:44.895Z,21.62
2024-05-09T05:23:50.399Z,21.61
2024-05-09T05:24:55.853Z,21.63
2024-05-09T05:26:04.199Z,21.61
2024-05-09T05:27:09.681Z,21.61
2024-05-09T05:28:15.122Z,21.63
2024-05-09T05:29:20.877Z,21.61
2024-05-09T05:30:28.945Z,21.6
2024-05-09T05:31:39.321Z,21.63
2024-05-09T05:32:44.931Z,21.62
2024-05-09T05:33:50.934Z,21.61
2024-05-09T05:34:56.657Z,21.59
2024-05-09T05:36:02.191Z,21.6
2024-05-09T05:37:07.637Z,21.6
2024-05-09T05:38:13.129Z,21.6
2024-05-09T05:39:18.767Z,21.59
2024-05-09T05:40:28.115Z,21.59
2024-05-09T05:41:44.036Z,21.62
2024-05-09T05:42:49.455Z,21.6
2024-05-09T05:43:54.878Z,21.59
2024-05-09T05:45:00.386Z,21.6
2024-05-09T05:46:08.815Z,21.6
2024-05-09T05:47:14.323Z,21.61
2024-05-09T05:48:20.234Z,21.6
2024-05-09T05:49:26.421Z,21.59
2024-05-09T05:50:34.916Z,21.59
2024-05-09T05:51:43.209Z,21.59
2024-05-09T05:52:48.654Z,21.59
2024-05-09T05:53:54.263Z,21.6
2024-05-09T05:54:59.686Z,21.6
2024-05-09T05:56:05.180Z,21.58
2024-05-09T05:57:10.751Z,21.58
2024-05-09T05:58:16.255Z,21.58
2024-05-09T05:59:21.687Z,21.57
2024-05-09T06:00:29.613Z,21.57
2024-05-09T06:01:45.766Z,21.57
2024-05-09T06:02:51.676Z,21.55
2024-05-09T06:03:57.629Z,21.56
2024-05-09T06:05:03.456Z,21.55
2024-05-09T06:06:09.215Z,21.55
2024-05-09T06:07:14.810Z,21.57
2024-05-09T06:08:20.307Z,21.57
2024-05-09T06:09:27.894Z,21.56
2024-05-09T06:10:36.917Z,21.55
2024-05-09T06:11:46.313Z,21.55
2024-05-09T06:12:52.108Z,21.55
2024-05-09T06:13:57.580Z,21.53
2024-05-09T06:15:03.125Z,21.53
2024-05-09T06:16:08.546Z,21.53
2024-05-09T06:17:14.053Z,21.52
2024-05-09T06:18:20.198Z,21.53
2024-05-09T06:19:26.695Z,21.53
2024-05-09T06:20:35.148Z,21.54
2024-05-09T06:21:43.421Z,21.55
2024-05-09T06:22:48.815Z,21.55
2024-05-09T06:23:54.333Z,21.54
2024-05-09T06:24:59.772Z,21.53
2024-05-09T06:26:07.854Z,21.52
2024-05-09T06:27:13.407Z,21.51
2024-05-09T06:28:18.803Z,21.51
2024-05-09T06:29:24.334Z,21.51
2024-05-09T06:30:34.978Z,21.5
2024-05-09T06:31:47.030Z,21.51
2024-05-09T06:32:52.686Z,21.53
2024-05-09T06:33:58.740Z,21.52
2024-05-09T06:35:04.658Z,21.52
2024-05-09T06:36:10.264Z,21.55
2024-05-09T06:37:15.661Z,21.55
2024-05-09T06:38:21.111Z,21.55
2024-05-09T06:39:26.678Z,21.55
2024-05-09T06:40:36.822Z,21.55
2024-05-09T06:41:47.752Z,21.56
2024-05-09T06:42:53.312Z,21.56
2024-05-09T06:43:58.824Z,21.55
2024-05-09T06:45:04.513Z,21.55
2024-05-09T06:46:09.930Z,21.55
2024-05-09T06:47:15.403Z,21.53
2024-05-09T06:48:21.548Z,21.53
2024-05-09T06:49:28.175Z,21.52
2024-05-09T06:50:37.176Z,21.51
2024-05-09T06:51:44.820Z,21.52
2024-05-09T06:52:50.315Z,21.54
2024-05-09T06:53:55.782Z,21.55
2024-05-09T06:55:01.203Z,21.56
2024-05-09T06:56:06.691Z,21.53
2024-05-09T06:57:12.250Z,21.52
2024-05-09T06:58:17.613Z,21.53
2024-05-09T06:59:23.025Z,21.54
2024-05-09T07:00:30.826Z,21.54
2024-05-09T07:01:46.271Z,21.53
2024-05-09T07:02:51.765Z,21.55
2024-05-09T07:03:57.652Z,21.56
2024-05-09T07:05:03.557Z,21.56
2024-05-09T07:06:09.575Z,21.56
2024-05-09T07:07:15.244Z,21.56
2024-05-09T07:08:20.653Z,21.56
2024-05-09T07:09:26.370Z,21.56
2024-05-09T07:10:34.426Z,21.56
2024-05-09T07:11:41.840Z,21.56
2024-05-09T07:12:47.597Z,21.56
2024-05-09T07:13:53.026Z,21.53
2024-05-09T07:14:58.608Z,21.5
2024-05-09T07:16:04.050Z,21.49
2024-05-09T07:17:09.574Z,21.49
2024-05-09T07:18:16.109Z,21.5
2024-05-09T07:19:24.773Z,21.5
2024-05-09T07:20:33.713Z,21.51
2024-05-09T07:21:40.702Z,21.53
2024-05-09T07:22:46.133Z,21.55
2024-05-09T07:23:51.736Z,21.54
2024-05-09T07:24:57.288Z,21.55
2024-05-09T07:26:02.692Z,21.54
2024-05-09T07:27:08.232Z,21.53
2024-05-09T07:28:16.604Z,21.54
2024-05-09T07:29:22.497Z,21.53
2024-05-09T07:30:30.997Z,21.54
2024-05-09T07:31:39.564Z,21.55
2024-05-09T07:32:45.254Z,21.55
2024-05-09T07:33:51.900Z,21.55
2024-05-09T07:34:57.709Z,21.55
2024-05-09T07:36:03.336Z,21.57
2024-05-09T07:37:08.724Z,21.57
2024-05-09T07:38:14.167Z,21.58
2024-05-09T07:39:19.865Z,21.57
2024-05-09T07:40:28.925Z,21.56
2024-05-09T07:41:41.432Z,21.55
2024-05-09T07:42:46.960Z,21.53
2024-05-09T07:43:52.416Z,21.54
2024-05-09T07:45:09.388Z,21.54
2024-05-09T07:50:54.855Z,21.55
2024-05-09T07:54:41.578Z,21.62
2024-05-09T07:55:47.320Z,21.62
2024-05-09T07:56:53.396Z,21.63
2024-05-09T07:57:59.570Z,21.63
2024-05-09T07:59:05.183Z,21.64
2024-05-09T08:00:11.894Z,21.65
2024-05-09T08:01:34.368Z,21.66
2024-05-09T08:02:40.275Z,21.66
2024-05-09T08:03:46.133Z,21.65
2024-05-09T08:04:52.604Z,21.65
2024-05-09T08:05:58.325Z,21.66
2024-05-09T08:07:03.800Z,21.65
2024-05-09T08:08:09.395Z,21.66
2024-05-09T08:09:19.283Z,21.66
2024-05-09T08:10:28.659Z,21.67
2024-05-09T08:11:34.885Z,21.67
2024-05-09T08:12:40.457Z,21.67
2024-05-09T08:13:45.911Z,21.67
2024-05-09T08:14:51.317Z,21.68
2024-05-09T08:15:56.793Z,21.68
2024-05-09T08:17:02.408Z,21.68
2024-05-09T08:18:07.978Z,21.68
2024-05-09T08:19:14.080Z,21.68
2024-05-09T08:20:23.045Z,21.68
2024-05-09T08:21:39.613Z,21.69
2024-05-09T08:22:45.112Z,21.68
2024-05-09T08:23:53.518Z,21.69
2024-05-09T08:24:58.966Z,21.7
2024-05-09T08:26:04.450Z,21.7
2024-05-09T08:27:10.618Z,21.7
2024-05-09T08:28:17.108Z,21.69
2024-05-09T08:29:22.914Z,21.7
2024-05-09T08:30:29.983Z,21.7
2024-05-09T08:31:42.819Z,21.7
2024-05-09T08:32:48.611Z,21.7
2024-05-09T08:33:54.529Z,21.69
2024-05-09T08:35:00.642Z,21.7
2024-05-09T08:36:06.243Z,21.7
2024-05-09T08:37:15.567Z,21.7
2024-05-09T08:38:37.737Z,21.7
2024-05-09T08:39:43.185Z,21.71
2024-05-09T08:40:48.842Z,21.69
2024-05-09T08:41:54.642Z,21.7
2024-05-09T08:43:00.041Z,21.7
2024-05-09T08:44:06.058Z,21.71
2024-05-09T08:45:11.469Z,21.71
2024-05-09T08:46:16.909Z,21.72
2024-05-09T08:47:22.574Z,21.71
2024-05-09T08:48:28.386Z,21.72
2024-05-09T08:49:35.536Z,21.73
2024-05-09T08:50:45.587Z,21.71
2024-05-09T08:51:51.633Z,21.72
2024-05-09T08:52:57.242Z,21.71
2024-05-09T08:54:02.628Z,21.71
2024-05-09T08:55:08.174Z,21.71
2024-05-09T08:56:13.997Z,21.72
2024-05-09T08:57:19.504Z,21.72
2024-05-09T08:58:24.924Z,21.71
2024-05-09T08:59:30.401Z,21.71
2024-05-09T09:00:36.743Z,21.71
2024-05-09T09:01:43.792Z,21.72
2024-05-09T09:02:49.673Z,21.7
2024-05-09T09:03:55.349Z,21.71
2024-05-09T09:05:01.300Z,21.72
2024-05-09T09:06:07.070Z,21.72
2024-05-09T09:07:12.558Z,21.72
2024-05-09T09:08:18.277Z,21.73
2024-05-09T09:09:23.706Z,21.73
2024-05-09T09:10:31.536Z,21.74
2024-05-09T09:11:38.804Z,21.73
2024-05-09T09:12:44.355Z,21.73
2024-05-09T09:13:50.021Z,21.73
2024-05-09T09:14:55.454Z,21.71
2024-05-09T09:16:00.994Z,21.72
2024-05-09T09:17:06.897Z,21.71
2024-05-09T09:18:12.606Z,21.71
2024-05-09T09:19:18.725Z,21.7
2024-05-09T09:20:28.681Z,21.66
2024-05-09T09:21:41.268Z,21.68
2024-05-09T09:22:46.845Z,21.69
2024-05-09T09:23:52.236Z,21.67
2024-05-09T09:24:57.637Z,21.68
2024-05-09T09:26:03.157Z,21.69
2024-05-09T09:27:08.609Z,21.68
2024-05-09T09:28:14.033Z,21.68
2024-05-09T09:29:20.112Z,21.65
2024-05-09T09:30:31.451Z,21.58
2024-05-09T09:31:42.631Z,21.63
2024-05-09T09:32:48.100Z,21.6
2024-05-09T09:33:53.983Z,21.65
2024-05-09T09:35:00.275Z,21.66
2024-05-09T09:36:08.958Z,21.67
2024-05-09T09:37:16.703Z,21.68
2024-05-09T09:38:22.432Z,21.67
2024-05-09T09:39:27.869Z,21.66
2024-05-09T09:40:34.923Z,21.64
2024-05-09T09:41:52.307Z,21.62
2024-05-09T09:42:57.741Z,21.64
2024-05-09T09:44:03.376Z,21.65
2024-05-09T09:45:10.952Z,21.66
2024-05-09T09:46:16.498Z,21.67
2024-05-09T09:47:22.323Z,21.66
2024-05-09T09:48:27.986Z,21.66
2024-05-09T09:49:34.129Z,21.67
2024-05-09T09:50:39.686Z,21.66
2024-05-09T09:51:45.185Z,21.67
2024-05-09T09:52:50.744Z,21.68
2024-05-09T09:53:56.113Z,21.69
2024-05-09T09:55:01.583Z,21.68
2024-05-09T09:56:07.122Z,21.68
2024-05-09T09:57:12.621Z,21.7
2024-05-09T09:58:18.236Z,21.69
2024-05-09T09:59:24.236Z,21.68
2024-05-09T10:00:32.408Z,21.68
2024-05-09T10:01:39.638Z,21.69
2024-05-09T10:02:45.324Z,21.7
2024-05-09T10:03:50.932Z,21.7
2024-05-09T10:04:57.067Z,21.69
2024-05-09T10:06:02.782Z,21.7
2024-05-09T10:07:08.239Z,21.69
2024-05-09T10:08:13.994Z,21.68
2024-05-09T10:09:19.504Z,21.71
2024-05-09T10:10:29.824Z,21.71
2024-05-09T10:11:41.809Z,21.71
2024-05-09T10:13:02.905Z,21.72
2024-05-09T10:14:09.147Z,21.71
2024-05-09T10:15:14.548Z,21.7
2024-05-09T10:16:20.083Z,21.69
2024-05-09T10:17:26.119Z,21.7
2024-05-09T10:18:34.097Z,21.7
2024-05-09T10:19:40.394Z,21.71
2024-05-09T10:20:46.042Z,21.7
2024-05-09T10:21:51.506Z,21.71
2024-05-09T10:22:57.203Z,21.7
2024-05-09T10:24:02.639Z,21.7
2024-05-09T10:25:08.101Z,21.71
2024-05-09T10:26:13.621Z,21.7
2024-05-09T10:27:19.036Z,21.71
2024-05-09T10:28:24.417Z,21.71
2024-05-09T10:29:29.811Z,21.72
2024-05-09T10:30:35.875Z,21.71
2024-05-09T10:31:46.029Z,21.66
2024-05-09T10:32:51.996Z,21.7
2024-05-09T10:33:57.847Z,21.72
2024-05-09T10:35:04.137Z,21.71
2024-05-09T10:36:09.921Z,21.68
2024-05-09T10:37:15.446Z,21.69
2024-05-09T10:38:21.162Z,21.71
2024-05-09T10:39:26.567Z,21.73
2024-05-09T10:40:32.262Z,21.74
2024-05-09T10:41:37.922Z,21.74
2024-05-09T10:42:43.382Z,21.73
2024-05-09T10:43:48.956Z,21.73
2024-05-09T10:44:54.719Z,21.73
2024-05-09T10:46:00.244Z,21.73
2024-05-09T10:47:06.014Z,21.72
2024-05-09T10:48:11.715Z,21.71
2024-05-09T10:49:17.710Z,21.71
2024-05-09T10:50:25.631Z,21.71
2024-05-09T10:51:38.698Z,21.72
2024-05-09T10:52:44.264Z,21.71
2024-05-09T10:53:49.683Z,21.71
2024-05-09T10:54:55.202Z,21.71
2024-05-09T10:56:00.819Z,21.72
2024-05-09T10:57:06.289Z,21.71
2024-05-09T10:58:11.774Z,21.71
2024-05-09T10:59:17.674Z,21.72
2024-05-09T11:00:27.155Z,21.73
2024-05-09T11:01:40.978Z,21.73
2024-05-09T11:02:46.799Z,21.73
2024-05-09T11:03:52.447Z,21.72
2024-05-09T11:04:58.583Z,21.67
2024-05-09T11:06:04.372Z,21.66
2024-05-09T11:07:10.453Z,21.61
2024-05-09T11:08:16.010Z,21.61
2024-05-09T11:09:21.527Z,21.6
2024-05-09T11:10:31.702Z,21.53
2024-05-09T11:11:39.540Z,21.48
2024-05-09T11:12:45.159Z,21.52
2024-05-09T11:13:50.665Z,21.54
2024-05-09T11:14:56.074Z,21.6
2024-05-09T11:16:01.573Z,21.62
2024-05-09T11:17:07.650Z,21.63
2024-05-09T11:18:13.279Z,21.63
2024-05-09T11:19:19.423Z,21.64
2024-05-09T11:20:29.304Z,21.65
2024-05-09T11:21:39.699Z,21.67
2024-05-09T11:22:45.533Z,21.67
2024-05-09T11:23:50.951Z,21.68
2024-05-09T11:24:56.457Z,21.68
2024-05-09T11:26:02.057Z,21.68
2024-05-09T11:27:07.450Z,21.68
2024-05-09T11:28:12.964Z,21.68
2024-05-09T11:29:19.536Z,21.66
2024-05-09T11:30:29.722Z,21.68
2024-05-09T11:31:37.571Z,21.68
2024-05-09T11:32:43.357Z,21.7
2024-05-09T11:33:49.102Z,21.7
2024-05-09T11:34:54.843Z,21.7
2024-05-09T11:36:00.236Z,21.69
2024-05-09T11:37:05.736Z,21.69
2024-05-09T11:38:11.286Z,21.71
2024-05-09T11:39:16.760Z,21.71
2024-05-09T11:40:25.025Z,21.73
2024-05-09T11:41:38.746Z,21.72
2024-05-09T11:42:44.218Z,21.72
2024-05-09T11:43:52.637Z,21.73
2024-05-09T11:44:58.030Z,21.73
2024-05-09T11:46:03.898Z,21.72
2024-05-09T11:47:10.013Z,21.73
2024-05-09T11:48:15.600Z,21.73
2024-05-09T11:49:23.143Z,21.72
2024-05-09T11:50:34.902Z,21.73
2024-05-09T11:51:41.676Z,21.75
2024-05-09T11:52:47.287Z,21.76
2024-05-09T11:53:52.727Z,21.76
2024-05-09T11:54:58.203Z,21.76
2024-05-09T11:56:03.829Z,21.76
2024-05-09T11:57:09.414Z,21.77
2024-05-09T11:58:14.846Z,21.77
2024-05-09T11:59:21.820Z,21.77
2024-05-09T12:00:29.365Z,21.78
2024-05-09T12:01:42.438Z,21.75
2024-05-09T12:02:48.274Z,21.74
2024-05-09T12:03:53.962Z,21.73
2024-05-09T12:05:00.141Z,21.72
2024-05-09T12:06:06.184Z,21.74
2024-05-09T12:07:12.854Z,21.74
2024-05-09T12:08:18.654Z,21.75
2024-05-09T12:09:24.129Z,21.76
2024-05-09T12:10:32.458Z,21.77
2024-05-09T12:11:41.455Z,21.77
2024-05-09T12:12:47.006Z,21.76
2024-05-09T12:13:53.486Z,21.76
2024-05-09T12:14:58.918Z,21.76
2024-05-09T12:16:04.360Z,21.76
2024-05-09T12:17:10.072Z,21.76
2024-05-09T12:18:15.695Z,21.77
2024-05-09T12:19:21.456Z,21.78
2024-05-09T12:20:32.816Z,21.78
2024-05-09T12:21:44.300Z,21.78
2024-05-09T12:22:49.882Z,21.78
2024-05-09T12:23:55.368Z,21.79
2024-05-09T12:25:00.821Z,21.79
2024-05-09T12:26:06.431Z,21.79
2024-05-09T12:27:11.840Z,21.79
2024-05-09T12:28:17.325Z,21.8
2024-05-09T12:29:23.215Z,21.8
2024-05-09T12:30:33.200Z,21.8
2024-05-09T12:31:45.442Z,21.81
2024-05-09T12:32:51.149Z,21.81
2024-05-09T12:33:57.186Z,21.81
2024-05-09T12:35:03.087Z,21.8
2024-05-09T12:36:08.482Z,21.8
2024-05-09T12:37:13.997Z,21.81
2024-05-09T12:38:19.634Z,21.81
2024-05-09T12:39:25.027Z,21.8
2024-05-09T12:40:34.767Z,21.8
2024-05-09T12:41:43.878Z,21.81
2024-05-09T12:42:49.297Z,21.82
2024-05-09T12:43:54.938Z,21.82
2024-05-09T12:45:00.348Z,21.82
2024-05-09T12:46:05.875Z,21.81
2024-05-09T12:47:11.458Z,21.82
2024-05-09T12:48:17.151Z,21.82
2024-05-09T12:49:22.982Z,21.82
2024-05-09T12:50:31.894Z,21.83
2024-05-09T12:51:39.961Z,21.83
2024-05-09T12:52:45.446Z,21.84
2024-05-09T12:53:50.889Z,21.83
2024-05-09T12:54:56.325Z,21.83
2024-05-09T12:56:03.200Z,21.83
2024-05-09T12:57:12.387Z,21.84
2024-05-09T12:58:17.979Z,21.84
2024-05-09T12:59:23.922Z,21.84
2024-05-09T13:00:33.216Z,21.84
2024-05-09T13:01:40.331Z,21.83
2024-05-09T13:02:46.094Z,21.84
2024-05-09T13:03:51.779Z,21.84
2024-05-09T13:04:58.240Z,21.84
2024-05-09T13:06:04.128Z,21.84
2024-05-09T13:07:09.588Z,21.85
2024-05-09T13:08:15.126Z,21.86
2024-05-09T13:09:20.634Z,21.86
2024-05-09T13:10:31.007Z,21.86
2024-05-09T13:11:38.708Z,21.86
2024-05-09T13:12:44.304Z,21.87
2024-05-09T13:13:49.763Z,21.86
2024-05-09T13:14:55.162Z,21.87
2024-05-09T13:16:00.634Z,21.87
2024-05-09T13:17:06.365Z,21.87
2024-05-09T13:18:12.086Z,21.87
2024-05-09T13:19:17.747Z,21.88
2024-05-09T13:20:28.669Z,21.88
2024-05-09T13:21:40.318Z,21.89
2024-05-09T13:22:45.816Z,21.89
2024-05-09T13:23:51.245Z,21.89
2024-05-09T13:24:57.234Z,21.88
2024-05-09T13:26:02.752Z,21.88
2024-05-09T13:27:08.153Z,21.89
2024-05-09T13:28:13.650Z,21.89
2024-05-09T13:29:19.612Z,21.89
2024-05-09T13:30:29.392Z,21.89
2024-05-09T13:31:46.344Z,21.89
2024-05-09T13:32:51.890Z,21.89
2024-05-09T13:33:57.723Z,21.89
2024-05-09T13:35:03.634Z,21.89
2024-05-09T13:36:09.058Z,21.89
2024-05-09T13:37:14.519Z,21.9
2024-05-09T13:38:20.444Z,21.9
2024-05-09T13:39:26.186Z,21.89
2024-05-09T13:40:33.355Z,21.89
2024-05-09T13:41:41.380Z,21.89
2024-05-09T13:42:48.339Z,21.9
2024-05-09T13:43:54.239Z,21.9
2024-05-09T13:44:59.635Z,21.91
2024-05-09T13:46:05.049Z,21.91
2024-05-09T13:47:10.668Z,21.92
2024-05-09T13:48:16.534Z,21.92
2024-05-09T13:49:22.875Z,21.92
2024-05-09T13:50:32.622Z,21.92
2024-05-09T13:51:41.391Z,21.93
2024-05-09T13:52:46.886Z,21.92
2024-05-09T13:53:52.289Z,21.93
2024-05-09T13:54:57.736Z,21.93
2024-05-09T13:56:03.273Z,21.94
2024-05-09T13:57:08.709Z,21.94
2024-05-09T13:58:14.099Z,21.94
2024-05-09T13:59:19.851Z,21.95
2024-05-09T14:01:49.567Z,21.94
2024-05-09T14:02:55.319Z,21.94
2024-05-09T14:04:01.159Z,21.94
2024-05-09T14:05:07.368Z,21.94
2024-05-09T14:06:13.524Z,21.95
2024-05-09T14:07:18.949Z,21.94
2024-05-09T14:08:24.507Z,21.96
2024-05-09T14:09:29.929Z,21.94
2024-05-09T14:10:35.464Z,21.96
2024-05-09T14:11:41.333Z,21.96
2024-05-09T14:12:46.930Z,21.97
2024-05-09T14:13:52.441Z,21.96
2024-05-09T14:14:57.868Z,21.96
2024-05-09T14:16:03.395Z,21.96
2024-05-09T14:17:09.193Z,21.96
2024-05-09T14:18:15.091Z,21.97
2024-05-09T14:19:20.842Z,21.97
2024-05-09T14:20:29.943Z,21.97
2024-05-09T14:21:37.458Z,21.96
2024-05-09T14:22:43.036Z,21.96
2024-05-09T14:23:48.467Z,21.97
2024-05-09T14:24:53.912Z,21.96
2024-05-09T14:25:59.469Z,21.97
2024-05-09T14:27:04.851Z,21.95
2024-05-09T14:28:10.288Z,21.95
2024-05-09T14:29:17.254Z,21.94
2024-05-09T14:30:26.213Z,21.95